sensor_id;sensor_type;location;lat;lon;timestamp;pressure;altitude;pressure_sealevel;temperature;humidity
25759;BME280;13604;52.496;13.456;2023-04-26T00:00:34;100961.34;;;3.25;76.48
25759;BME280;13604;52.496;13.456;2023-04-26T00:02:59;100950.50;;;3.07;77.00
25759;BME280;13604;52.496;13.456;2023-04-26T00:05:24;100948.66;;;3.16;78.44
25759;BME280;13604;52.496;13.456;2023-04-26T00:07:50;100951.66;;;3.10;77.53
25759;BME280;13604;52.496;13.456;2023-04-26T00:10:15;100959.31;;;3.21;77.56
25759;BME280;13604;52.496;13.456;2023-04-26T00:12:40;100959.59;;;3.13;77.73
25759;BME280;13604;52.496;13.456;2023-04-26T00:15:07;100948.38;;;3.01;78.14
25759;BME280;13604;52.496;13.456;2023-04-26T00:17:32;100954.91;;;2.98;78.46
25759;BME280;13604;52.496;13.456;2023-04-26T00:19:57;100966.25;;;3.00;78.64
25759;BME280;13604;52.496;13.456;2023-04-26T00:22:23;100942.19;;;2.77;79.38
25759;BME280;13604;52.496;13.456;2023-04-26T00:24:49;100966.59;;;2.82;80.10
25759;BME280;13604;52.496;13.456;2023-04-26T00:27:15;100944.69;;;2.65;80.30
25759;BME280;13604;52.496;13.456;2023-04-26T00:29:40;100940.84;;;2.60;80.32
25759;BME280;13604;52.496;13.456;2023-04-26T00:32:06;100964.63;;;2.57;80.72
25759;BME280;13604;52.496;13.456;2023-04-26T00:34:35;100975.53;;;2.65;81.46
25759;BME280;13604;52.496;13.456;2023-04-26T00:37:01;100980.13;;;2.69;81.07
25759;BME280;13604;52.496;13.456;2023-04-26T00:39:27;100959.72;;;2.61;81.56
25759;BME280;13604;52.496;13.456;2023-04-26T00:41:53;100944.59;;;2.53;81.60
25759;BME280;13604;52.496;13.456;2023-04-26T00:44:18;100959.84;;;2.62;81.61
25759;BME280;13604;52.496;13.456;2023-04-26T00:46:43;100977.09;;;2.63;82.45
25759;BME280;13604;52.496;13.456;2023-04-26T00:49:14;100965.16;;;2.53;82.07
25759;BME280;13604;52.496;13.456;2023-04-26T00:51:40;100964.13;;;2.51;83.07
25759;BME280;13604;52.496;13.456;2023-04-26T00:54:05;100973.09;;;2.56;82.77
25759;BME280;13604;52.496;13.456;2023-04-26T00:56:31;100969.25;;;2.51;83.50
25759;BME280;13604;52.496;13.456;2023-04-26T00:58:56;100978.41;;;2.48;83.39
25759;BME280;13604;52.496;13.456;2023-04-26T01:01:22;100973.09;;;2.56;83.21
25759;BME280;13604;52.496;13.456;2023-04-26T01:03:47;100956.69;;;2.44;83.45
25759;BME280;13604;52.496;13.456;2023-04-26T01:06:12;100974.66;;;2.54;83.45
25759;BME280;13604;52.496;13.456;2023-04-26T01:08:38;100981.09;;;2.49;83.68
25759;BME280;13604;52.496;13.456;2023-04-26T01:11:03;100958.88;;;2.39;83.91
25759;BME280;13604;52.496;13.456;2023-04-26T01:13:31;100978.03;;;2.43;83.78
25759;BME280;13604;52.496;13.456;2023-04-26T01:15:57;100946.09;;;2.19;84.67
25759;BME280;13604;52.496;13.456;2023-04-26T01:18:23;100973.47;;;2.29;84.98
25759;BME280;13604;52.496;13.456;2023-04-26T01:20:49;100978.22;;;2.24;85.37
25759;BME280;13604;52.496;13.456;2023-04-26T01:23:17;100976.03;;;2.29;85.71
25759;BME280;13604;52.496;13.456;2023-04-26T01:25:42;100983.59;;;2.27;85.58
25759;BME280;13604;52.496;13.456;2023-04-26T01:28:07;100983.22;;;2.23;86.24
25759;BME280;13604;52.496;13.456;2023-04-26T01:30:32;100984.25;;;2.25;85.75
25759;BME280;13604;52.496;13.456;2023-04-26T01:32:58;100962.56;;;2.11;86.27
25759;BME280;13604;52.496;13.456;2023-04-26T01:35:23;100964.88;;;2.08;86.53
25759;BME280;13604;52.496;13.456;2023-04-26T01:37:48;100985.16;;;2.15;86.54
25759;BME280;13604;52.496;13.456;2023-04-26T01:40:14;100977.81;;;2.19;86.36
25759;BME280;13604;52.496;13.456;2023-04-26T01:42:39;101000.69;;;2.27;86.54
25759;BME280;13604;52.496;13.456;2023-04-26T01:45:05;100988.25;;;2.21;86.36
25759;BME280;13604;52.496;13.456;2023-04-26T01:47:30;100976.81;;;2.07;86.45
25759;BME280;13604;52.496;13.456;2023-04-26T01:49:56;100993.38;;;2.21;86.99
25759;BME280;13604;52.496;13.456;2023-04-26T01:52:21;101002.50;;;2.17;86.94
25759;BME280;13604;52.496;13.456;2023-04-26T01:54:46;100983.88;;;2.10;87.03
25759;BME280;13604;52.496;13.456;2023-04-26T01:57:12;100967.69;;;2.00;87.70
25759;BME280;13604;52.496;13.456;2023-04-26T01:59:37;100997.75;;;2.12;87.45
25759;BME280;13604;52.496;13.456;2023-04-26T02:02:02;100980.81;;;1.93;88.48
25759;BME280;13604;52.496;13.456;2023-04-26T02:04:28;101000.19;;;2.00;88.64
25759;BME280;13604;52.496;13.456;2023-04-26T02:06:53;101000.59;;;2.05;88.54
25759;BME280;13604;52.496;13.456;2023-04-26T02:09:18;100981.81;;;1.95;88.58
25759;BME280;13604;52.496;13.456;2023-04-26T02:11:44;101003.91;;;2.03;88.74
25759;BME280;13604;52.496;13.456;2023-04-26T02:14:09;100982.75;;;1.96;88.99
25759;BME280;13604;52.496;13.456;2023-04-26T02:16:35;101002.00;;;2.01;89.02
25759;BME280;13604;52.496;13.456;2023-04-26T02:19:00;101001.75;;;1.98;89.25
25759;BME280;13604;52.496;13.456;2023-04-26T02:21:26;100997.50;;;1.88;89.89
25759;BME280;13604;52.496;13.456;2023-04-26T02:23:52;101002.38;;;1.85;90.06
25759;BME280;13604;52.496;13.456;2023-04-26T02:26:17;100990.56;;;1.77;90.55
25759;BME280;13604;52.496;13.456;2023-04-26T02:28:42;100994.03;;;1.77;90.47
25759;BME280;13604;52.496;13.456;2023-04-26T02:31:08;101006.72;;;1.76;91.34
25759;BME280;13604;52.496;13.456;2023-04-26T02:33:33;100960.66;;;1.57;91.66
25759;BME280;13604;52.496;13.456;2023-04-26T02:36:02;100988.50;;;1.62;91.62
25759;BME280;13604;52.496;13.456;2023-04-26T02:38:28;100984.78;;;1.59;92.20
25759;BME280;13604;52.496;13.456;2023-04-26T02:41:00;100967.56;;;1.47;92.32
25759;BME280;13604;52.496;13.456;2023-04-26T02:43:25;101002.25;;;1.63;92.23
25759;BME280;13604;52.496;13.456;2023-04-26T02:45:51;100993.13;;;1.67;92.54
25759;BME280;13604;52.496;13.456;2023-04-26T02:48:16;100993.00;;;1.65;93.10
25759;BME280;13604;52.496;13.456;2023-04-26T02:50:41;100999.56;;;1.61;93.17
25759;BME280;13604;52.496;13.456;2023-04-26T02:53:07;100985.66;;;1.49;93.58
25759;BME280;13604;52.496;13.456;2023-04-26T02:55:32;100994.56;;;1.63;93.13
25759;BME280;13604;52.496;13.456;2023-04-26T02:57:57;100988.50;;;1.52;93.24
25759;BME280;13604;52.496;13.456;2023-04-26T03:00:23;100989.50;;;1.54;93.56
25759;BME280;13604;52.496;13.456;2023-04-26T03:02:49;100998.78;;;1.62;93.32
25759;BME280;13604;52.496;13.456;2023-04-26T03:05:14;100998.28;;;1.67;93.38
25759;BME280;13604;52.496;13.456;2023-04-26T03:07:39;101000.94;;;1.58;93.67
25759;BME280;13604;52.496;13.456;2023-04-26T03:10:05;100973.34;;;1.45;93.75
25759;BME280;13604;52.496;13.456;2023-04-26T03:12:31;101003.63;;;1.59;93.73
25759;BME280;13604;52.496;13.456;2023-04-26T03:14:56;100990.66;;;1.47;94.57
25759;BME280;13604;52.496;13.456;2023-04-26T03:17:21;101002.59;;;1.47;95.17
25759;BME280;13604;52.496;13.456;2023-04-26T03:19:47;101008.50;;;1.46;95.79
25759;BME280;13604;52.496;13.456;2023-04-26T03:22:12;101012.88;;;1.47;95.63
25759;BME280;13604;52.496;13.456;2023-04-26T03:24:41;100992.34;;;1.37;95.85
25759;BME280;13604;52.496;13.456;2023-04-26T03:27:07;100984.91;;;1.40;95.75
25759;BME280;13604;52.496;13.456;2023-04-26T03:29:32;101001.72;;;1.57;95.33
25759;BME280;13604;52.496;13.456;2023-04-26T03:31:57;101004.16;;;1.55;95.30
25759;BME280;13604;52.496;13.456;2023-04-26T03:34:22;101012.75;;;1.56;95.46
25759;BME280;13604;52.496;13.456;2023-04-26T03:36:48;101008.13;;;1.52;95.99
25759;BME280;13604;52.496;13.456;2023-04-26T03:39:13;100982.81;;;1.36;95.83
25759;BME280;13604;52.496;13.456;2023-04-26T03:41:38;101003.22;;;1.44;96.03
25759;BME280;13604;52.496;13.456;2023-04-26T03:44:04;101010.28;;;1.37;96.62
25759;BME280;13604;52.496;13.456;2023-04-26T03:46:30;101007.59;;;1.35;96.70
25759;BME280;13604;52.496;13.456;2023-04-26T03:48:55;101024.28;;;1.40;97.62
25759;BME280;13604;52.496;13.456;2023-04-26T03:51:20;101002.41;;;1.25;97.25
25759;BME280;13604;52.496;13.456;2023-04-26T03:53:46;101018.63;;;1.34;98.15
25759;BME280;13604;52.496;13.456;2023-04-26T03:56:13;101015.56;;;1.49;97.25
25759;BME280;13604;52.496;13.456;2023-04-26T03:58:38;101013.22;;;1.41;97.75
25759;BME280;13604;52.496;13.456;2023-04-26T04:01:03;101026.97;;;1.42;97.74
25759;BME280;13604;52.496;13.456;2023-04-26T04:03:29;101034.16;;;1.46;98.49
25759;BME280;13604;52.496;13.456;2023-04-26T04:05:54;101030.19;;;1.50;97.75
25759;BME280;13604;52.496;13.456;2023-04-26T04:08:19;101039.56;;;1.49;97.54
25759;BME280;13604;52.496;13.456;2023-04-26T04:10:45;101032.00;;;1.51;97.64
25759;BME280;13604;52.496;13.456;2023-04-26T04:13:10;101028.53;;;1.50;97.85
25759;BME280;13604;52.496;13.456;2023-04-26T04:15:35;101032.75;;;1.50;97.48
25759;BME280;13604;52.496;13.456;2023-04-26T04:18:01;101033.13;;;1.44;97.13
25759;BME280;13604;52.496;13.456;2023-04-26T04:20:26;101018.50;;;1.43;97.26
25759;BME280;13604;52.496;13.456;2023-04-26T04:22:52;101033.81;;;1.52;98.09
25759;BME280;13604;52.496;13.456;2023-04-26T04:25:17;101033.41;;;1.57;96.96
25759;BME280;13604;52.496;13.456;2023-04-26T04:27:45;101037.81;;;1.58;97.50
25759;BME280;13604;52.496;13.456;2023-04-26T04:30:11;101035.22;;;1.58;97.08
25759;BME280;13604;52.496;13.456;2023-04-26T04:32:36;101016.72;;;1.52;97.08
25759;BME280;13604;52.496;13.456;2023-04-26T04:35:04;101032.66;;;1.58;96.43
25759;BME280;13604;52.496;13.456;2023-04-26T04:37:29;101047.59;;;1.73;96.47
25759;BME280;13604;52.496;13.456;2023-04-26T04:39:57;101038.06;;;1.82;96.06
25759;BME280;13604;52.496;13.456;2023-04-26T04:42:22;100991.81;;;1.51;96.07
25759;BME280;13604;52.496;13.456;2023-04-26T04:44:47;101034.34;;;1.78;94.76
25759;BME280;13604;52.496;13.456;2023-04-26T04:47:14;101051.44;;;1.88;95.09
25759;BME280;13604;52.496;13.456;2023-04-26T04:49:39;101031.53;;;1.86;98.38
25759;BME280;13604;52.496;13.456;2023-04-26T04:52:04;101042.19;;;2.00;98.71
25759;BME280;13604;52.496;13.456;2023-04-26T04:54:30;101038.59;;;2.09;97.48
25759;BME280;13604;52.496;13.456;2023-04-26T04:56:56;100970.78;;;1.76;94.47
25759;BME280;13604;52.496;13.456;2023-04-26T04:59:21;101053.34;;;2.32;99.13
25759;BME280;13604;52.496;13.456;2023-04-26T05:01:47;101057.88;;;2.34;94.06
25759;BME280;13604;52.496;13.456;2023-04-26T05:04:12;101052.34;;;2.30;95.59
25759;BME280;13604;52.496;13.456;2023-04-26T05:06:37;101064.41;;;2.41;95.54
25759;BME280;13604;52.496;13.456;2023-04-26T05:09:02;101056.81;;;2.43;98.14
25759;BME280;13604;52.496;13.456;2023-04-26T05:11:30;101065.56;;;2.45;93.38
25759;BME280;13604;52.496;13.456;2023-04-26T05:13:55;101068.25;;;2.46;91.15
25759;BME280;13604;52.496;13.456;2023-04-26T05:16:20;101067.09;;;2.43;90.71
25759;BME280;13604;52.496;13.456;2023-04-26T05:18:46;101079.81;;;2.51;90.61
25759;BME280;13604;52.496;13.456;2023-04-26T05:21:11;101079.56;;;2.58;90.24
25759;BME280;13604;52.496;13.456;2023-04-26T05:23:36;101081.34;;;2.60;90.20
25759;BME280;13604;52.496;13.456;2023-04-26T05:26:03;101083.53;;;2.65;90.47
25759;BME280;13604;52.496;13.456;2023-04-26T05:28:29;101083.78;;;2.68;89.06
25759;BME280;13604;52.496;13.456;2023-04-26T05:30:54;101048.19;;;2.52;88.85
25759;BME280;13604;52.496;13.456;2023-04-26T05:33:19;101074.53;;;2.70;88.57
25759;BME280;13604;52.496;13.456;2023-04-26T05:35:45;101063.69;;;2.74;88.99
25759;BME280;13604;52.496;13.456;2023-04-26T05:38:11;101078.97;;;2.93;87.60
25759;BME280;13604;52.496;13.456;2023-04-26T05:40:36;101076.91;;;3.00;86.32
25759;BME280;13604;52.496;13.456;2023-04-26T05:43:02;101072.94;;;2.93;85.89
25759;BME280;13604;52.496;13.456;2023-04-26T05:45:27;101072.34;;;3.07;85.41
25759;BME280;13604;52.496;13.456;2023-04-26T05:47:52;101086.72;;;3.16;84.80
25759;BME280;13604;52.496;13.456;2023-04-26T05:50:18;101061.53;;;3.11;84.78
25759;BME280;13604;52.496;13.456;2023-04-26T05:52:43;101107.38;;;3.38;84.43
25759;BME280;13604;52.496;13.456;2023-04-26T05:55:08;101092.44;;;3.44;84.37
25759;BME280;13604;52.496;13.456;2023-04-26T05:57:34;101084.50;;;3.53;82.88
25759;BME280;13604;52.496;13.456;2023-04-26T05:59:59;101099.91;;;3.63;82.92
25759;BME280;13604;52.496;13.456;2023-04-26T06:02:24;101104.53;;;3.67;82.21
25759;BME280;13604;52.496;13.456;2023-04-26T06:04:50;101092.47;;;3.78;82.41
25759;BME280;13604;52.496;13.456;2023-04-26T06:07:15;101101.28;;;3.92;81.31
25759;BME280;13604;52.496;13.456;2023-04-26T06:09:43;101087.38;;;3.90;81.53
25759;BME280;13604;52.496;13.456;2023-04-26T06:12:08;101111.44;;;4.12;80.60
25759;BME280;13604;52.496;13.456;2023-04-26T06:14:34;101103.06;;;4.15;80.62
25759;BME280;13604;52.496;13.456;2023-04-26T06:16:59;101098.28;;;4.31;79.46
25759;BME280;13604;52.496;13.456;2023-04-26T06:19:24;101104.34;;;4.43;78.70
25759;BME280;13604;52.496;13.456;2023-04-26T06:21:50;101105.69;;;4.38;77.41
25759;BME280;13604;52.496;13.456;2023-04-26T06:24:18;101102.34;;;4.39;78.33
25759;BME280;13604;52.496;13.456;2023-04-26T06:26:44;101073.84;;;4.26;77.92
25759;BME280;13604;52.496;13.456;2023-04-26T06:29:09;101096.72;;;4.33;77.78
25759;BME280;13604;52.496;13.456;2023-04-26T06:31:34;101103.59;;;4.45;77.33
25759;BME280;13604;52.496;13.456;2023-04-26T06:33:59;101103.25;;;4.64;77.42
25759;BME280;13604;52.496;13.456;2023-04-26T06:36:25;101072.66;;;4.56;76.83
25759;BME280;13604;52.496;13.456;2023-04-26T06:38:52;101094.09;;;4.91;75.65
25759;BME280;13604;52.496;13.456;2023-04-26T06:41:17;101111.50;;;5.05;74.95
25759;BME280;13604;52.496;13.456;2023-04-26T06:43:42;101107.22;;;5.06;74.75
25759;BME280;13604;52.496;13.456;2023-04-26T06:46:08;101106.66;;;5.22;74.38
25759;BME280;13604;52.496;13.456;2023-04-26T06:48:33;101113.41;;;5.31;74.07
25759;BME280;13604;52.496;13.456;2023-04-26T06:51:04;101117.09;;;5.35;72.69
25759;BME280;13604;52.496;13.456;2023-04-26T06:53:29;101099.47;;;5.41;73.22
25759;BME280;13604;52.496;13.456;2023-04-26T06:55:54;101111.47;;;5.41;72.94
25759;BME280;13604;52.496;13.456;2023-04-26T06:58:22;101099.88;;;5.59;73.14
25759;BME280;13604;52.496;13.456;2023-04-26T07:00:47;101100.25;;;5.77;70.79
25759;BME280;13604;52.496;13.456;2023-04-26T07:03:12;101123.38;;;5.99;70.94
25759;BME280;13604;52.496;13.456;2023-04-26T07:05:38;101128.22;;;6.20;68.65
25759;BME280;13604;52.496;13.456;2023-04-26T07:08:04;101097.91;;;6.31;68.42
25759;BME280;13604;52.496;13.456;2023-04-26T07:10:29;101117.00;;;6.58;67.92
25759;BME280;13604;52.496;13.456;2023-04-26T07:12:54;101121.16;;;6.56;67.12
25759;BME280;13604;52.496;13.456;2023-04-26T07:15:20;101127.13;;;6.41;67.61
25759;BME280;13604;52.496;13.456;2023-04-26T07:17:45;101115.53;;;6.36;66.91
25759;BME280;13604;52.496;13.456;2023-04-26T07:20:10;101123.06;;;6.58;66.03
25759;BME280;13604;52.496;13.456;2023-04-26T07:22:36;101123.38;;;6.63;66.40
25759;BME280;13604;52.496;13.456;2023-04-26T07:25:01;101104.06;;;6.58;66.50
25759;BME280;13604;52.496;13.456;2023-04-26T07:27:26;101107.16;;;6.92;65.46
25759;BME280;13604;52.496;13.456;2023-04-26T07:29:53;101125.69;;;7.25;62.85
25759;BME280;13604;52.496;13.456;2023-04-26T07:32:19;101113.19;;;7.60;61.50
25759;BME280;13604;52.496;13.456;2023-04-26T07:34:44;101125.81;;;8.10;59.95
25759;BME280;13604;52.496;13.456;2023-04-26T07:37:10;101125.88;;;8.40;58.32
25759;BME280;13604;52.496;13.456;2023-04-26T07:39:35;101126.47;;;9.09;56.98
25759;BME280;13604;52.496;13.456;2023-04-26T07:42:01;101134.88;;;9.34;54.98
25759;BME280;13604;52.496;13.456;2023-04-26T07:44:27;101133.38;;;9.54;53.32
25759;BME280;13604;52.496;13.456;2023-04-26T07:46:52;101107.06;;;9.65;52.64
25759;BME280;13604;52.496;13.456;2023-04-26T07:49:17;101118.63;;;9.38;52.25
25759;BME280;13604;52.496;13.456;2023-04-26T07:51:43;101128.03;;;9.68;53.41
25759;BME280;13604;52.496;13.456;2023-04-26T07:54:08;101136.78;;;10.34;52.38
25759;BME280;13604;52.496;13.456;2023-04-26T07:56:33;101132.97;;;10.78;50.79
25759;BME280;13604;52.496;13.456;2023-04-26T07:58:59;101136.47;;;10.79;48.44
25759;BME280;13604;52.496;13.456;2023-04-26T08:01:24;101130.53;;;10.81;48.94
25759;BME280;13604;52.496;13.456;2023-04-26T08:03:50;101126.28;;;10.32;49.19
25759;BME280;13604;52.496;13.456;2023-04-26T08:06:15;101115.56;;;10.26;51.46
25759;BME280;13604;52.496;13.456;2023-04-26T08:08:41;101145.19;;;10.45;50.49
25759;BME280;13604;52.496;13.456;2023-04-26T08:11:09;101129.03;;;9.86;50.30
25759;BME280;13604;52.496;13.456;2023-04-26T08:13:34;101151.88;;;9.75;51.14
25759;BME280;13604;52.496;13.456;2023-04-26T08:16:00;101121.31;;;10.21;50.46
25759;BME280;13604;52.496;13.456;2023-04-26T08:18:25;101148.16;;;10.03;50.14
25759;BME280;13604;52.496;13.456;2023-04-26T08:20:50;101098.75;;;9.24;51.39
25759;BME280;13604;52.496;13.456;2023-04-26T08:23:16;101156.13;;;8.68;53.16
25759;BME280;13604;52.496;13.456;2023-04-26T08:25:43;101147.84;;;8.17;55.85
25759;BME280;13604;52.496;13.456;2023-04-26T08:28:08;101151.16;;;8.14;57.27
25759;BME280;13604;52.496;13.456;2023-04-26T08:30:34;101136.50;;;9.02;54.73
25759;BME280;13604;52.496;13.456;2023-04-26T08:32:59;101135.97;;;10.02;51.70
25759;BME280;13604;52.496;13.456;2023-04-26T08:35:25;101086.94;;;11.51;49.99
25759;BME280;13604;52.496;13.456;2023-04-26T08:37:50;101120.63;;;12.02;47.13
25759;BME280;13604;52.496;13.456;2023-04-26T08:40:21;101142.34;;;12.01;45.14
25759;BME280;13604;52.496;13.456;2023-04-26T08:42:47;101153.19;;;11.36;46.60
25759;BME280;13604;52.496;13.456;2023-04-26T08:45:14;101155.97;;;10.87;48.10
25759;BME280;13604;52.496;13.456;2023-04-26T08:47:47;101154.50;;;9.29;51.76
25759;BME280;13604;52.496;13.456;2023-04-26T08:50:13;101167.03;;;8.47;58.10
25759;BME280;13604;52.496;13.456;2023-04-26T08:52:40;101170.03;;;7.43;62.39
25759;BME280;13604;52.496;13.456;2023-04-26T08:55:06;101155.22;;;7.14;65.04
25759;BME280;13604;52.496;13.456;2023-04-26T08:57:32;101171.25;;;7.62;63.53
25759;BME280;13604;52.496;13.456;2023-04-26T08:59:57;101167.53;;;9.61;62.87
25759;BME280;13604;52.496;13.456;2023-04-26T09:02:23;101152.25;;;12.27;54.67
25759;BME280;13604;52.496;13.456;2023-04-26T09:04:50;101156.81;;;14.26;46.61
25759;BME280;13604;52.496;13.456;2023-04-26T09:07:29;101141.50;;;14.61;44.60
25759;BME280;13604;52.496;13.456;2023-04-26T09:09:57;101143.66;;;14.24;43.33
25759;BME280;13604;52.496;13.456;2023-04-26T09:12:22;101134.59;;;13.47;43.84
25759;BME280;13604;52.496;13.456;2023-04-26T09:14:48;101143.34;;;12.63;45.34
25759;BME280;13604;52.496;13.456;2023-04-26T09:17:32;101159.28;;;12.10;47.00
25759;BME280;13604;52.496;13.456;2023-04-26T09:19:59;101154.66;;;11.67;47.40
25759;BME280;13604;52.496;13.456;2023-04-26T09:22:32;101143.22;;;11.28;47.16
25759;BME280;13604;52.496;13.456;2023-04-26T09:24:59;101168.84;;;10.17;47.90
25759;BME280;13604;52.496;13.456;2023-04-26T09:27:38;101152.66;;;9.74;50.18
25759;BME280;13604;52.496;13.456;2023-04-26T09:30:12;101154.53;;;10.58;50.56
25759;BME280;13604;52.496;13.456;2023-04-26T09:32:55;101156.84;;;11.04;45.96
25759;BME280;13604;52.496;13.456;2023-04-26T09:35:37;101157.88;;;10.90;46.05
25759;BME280;13604;52.496;13.456;2023-04-26T09:38:15;101153.22;;;10.49;46.51
25759;BME280;13604;52.496;13.456;2023-04-26T09:40:49;101159.22;;;10.65;47.00
25759;BME280;13604;52.496;13.456;2023-04-26T09:43:16;101165.47;;;11.93;44.74
25759;BME280;13604;52.496;13.456;2023-04-26T09:45:48;101149.81;;;11.93;44.57
25759;BME280;13604;52.496;13.456;2023-04-26T09:48:20;101153.06;;;12.26;44.34
25759;BME280;13604;52.496;13.456;2023-04-26T09:50:48;101138.97;;;13.69;41.34
25759;BME280;13604;52.496;13.456;2023-04-26T09:56:07;101146.47;;;15.04;36.63
25759;BME280;13604;52.496;13.456;2023-04-26T09:58:33;101156.97;;;14.06;37.97
25759;BME280;13604;52.496;13.456;2023-04-26T10:00:58;101130.34;;;12.64;39.86
25759;BME280;13604;52.496;13.456;2023-04-26T10:03:24;101143.50;;;14.94;37.88
25759;BME280;13604;52.496;13.456;2023-04-26T10:05:49;101131.56;;;16.47;34.30
25759;BME280;13604;52.496;13.456;2023-04-26T10:08:14;101144.88;;;15.64;35.31
25759;BME280;13604;52.496;13.456;2023-04-26T10:10:41;101155.53;;;13.47;38.65
25759;BME280;13604;52.496;13.456;2023-04-26T10:13:07;101156.31;;;12.40;41.02
25759;BME280;13604;52.496;13.456;2023-04-26T10:15:32;101149.16;;;11.61;41.54
25759;BME280;13604;52.496;13.456;2023-04-26T10:17:58;101164.31;;;11.14;42.56
25759;BME280;13604;52.496;13.456;2023-04-26T10:20:26;101164.09;;;10.59;43.22
25759;BME280;13604;52.496;13.456;2023-04-26T10:22:55;101159.25;;;10.48;43.44
25759;BME280;13604;52.496;13.456;2023-04-26T10:25:37;101154.69;;;11.13;43.89
25759;BME280;13604;52.496;13.456;2023-04-26T10:28:03;101149.41;;;12.03;41.68
25759;BME280;13604;52.496;13.456;2023-04-26T10:30:29;101158.91;;;12.21;41.06
25759;BME280;13604;52.496;13.456;2023-04-26T10:35:26;101152.72;;;10.57;42.22
25759;BME280;13604;52.496;13.456;2023-04-26T10:40:27;101165.84;;;9.77;44.78
25759;BME280;13604;52.496;13.456;2023-04-26T10:43:28;101165.34;;;9.22;47.00
25759;BME280;13604;52.496;13.456;2023-04-26T10:45:53;101162.41;;;8.86;49.53
25759;BME280;13604;52.496;13.456;2023-04-26T10:53:27;101166.69;;;8.27;50.47
25759;BME280;13604;52.496;13.456;2023-04-26T10:55:52;101178.69;;;8.40;49.69
25759;BME280;13604;52.496;13.456;2023-04-26T10:58:25;101166.03;;;8.60;49.88
25759;BME280;13604;52.496;13.456;2023-04-26T11:01:17;101145.03;;;9.15;48.18
25759;BME280;13604;52.496;13.456;2023-04-26T11:06:22;101163.50;;;12.46;41.00
25759;BME280;13604;52.496;13.456;2023-04-26T11:08:47;101160.88;;;12.65;40.83
25759;BME280;13604;52.496;13.456;2023-04-26T11:11:15;101151.91;;;12.20;41.27
25759;BME280;13604;52.496;13.456;2023-04-26T11:13:42;101163.69;;;11.74;41.16
25759;BME280;13604;52.496;13.456;2023-04-26T11:16:09;101162.19;;;10.55;42.54
25759;BME280;13604;52.496;13.456;2023-04-26T11:18:37;101140.81;;;9.80;44.35
25759;BME280;13604;52.496;13.456;2023-04-26T11:21:04;101164.44;;;9.68;45.08
25759;BME280;13604;52.496;13.456;2023-04-26T11:23:29;101152.16;;;9.65;45.82
25759;BME280;13604;52.496;13.456;2023-04-26T11:25:59;101153.78;;;9.63;44.03
25759;BME280;13604;52.496;13.456;2023-04-26T11:28:26;101171.56;;;9.87;44.16
25759;BME280;13604;52.496;13.456;2023-04-26T11:30:52;101161.81;;;9.99;42.82
25759;BME280;13604;52.496;13.456;2023-04-26T11:33:19;101167.66;;;10.43;41.15
25759;BME280;13604;52.496;13.456;2023-04-26T11:35:48;101146.88;;;10.79;40.60
25759;BME280;13604;52.496;13.456;2023-04-26T11:38:13;101173.97;;;10.99;39.79
25759;BME280;13604;52.496;13.456;2023-04-26T11:40:39;101168.00;;;11.73;38.88
25759;BME280;13604;52.496;13.456;2023-04-26T11:43:06;101153.84;;;11.86;38.45
25759;BME280;13604;52.496;13.456;2023-04-26T11:45:35;101172.22;;;11.34;39.69
25759;BME280;13604;52.496;13.456;2023-04-26T11:48:08;101165.03;;;11.12;39.74
25759;BME280;13604;52.496;13.456;2023-04-26T11:50:36;101172.84;;;10.59;42.40
25759;BME280;13604;52.496;13.456;2023-04-26T11:53:04;101179.16;;;9.99;42.84
25759;BME280;13604;52.496;13.456;2023-04-26T11:55:30;101176.13;;;9.60;44.92
25759;BME280;13604;52.496;13.456;2023-04-26T11:57:57;101169.22;;;8.99;45.99
25759;BME280;13604;52.496;13.456;2023-04-26T12:00:23;101173.84;;;8.60;46.85
25759;BME280;13604;52.496;13.456;2023-04-26T12:02:49;101172.28;;;8.48;46.66
25759;BME280;13604;52.496;13.456;2023-04-26T12:05:25;101177.47;;;8.77;47.17
25759;BME280;13604;52.496;13.456;2023-04-26T12:07:54;101153.00;;;9.18;46.57
25759;BME280;13604;52.496;13.456;2023-04-26T12:10:41;101188.34;;;10.08;44.22
25759;BME280;13604;52.496;13.456;2023-04-26T12:13:06;101169.81;;;11.20;42.13
25759;BME280;13604;52.496;13.456;2023-04-26T12:15:32;101158.44;;;12.29;38.51
25759;BME280;13604;52.496;13.456;2023-04-26T12:18:00;101184.78;;;14.27;36.11
25759;BME280;13604;52.496;13.456;2023-04-26T12:20:56;101180.81;;;16.54;31.19
25759;BME280;13604;52.496;13.456;2023-04-26T12:23:42;101173.97;;;18.02;30.35
25759;BME280;13604;52.496;13.456;2023-04-26T12:26:12;101182.59;;;19.31;28.51
25759;BME280;13604;52.496;13.456;2023-04-26T12:28:38;101165.50;;;16.71;30.50
25759;BME280;13604;52.496;13.456;2023-04-26T12:31:04;101174.06;;;14.93;33.49
25759;BME280;13604;52.496;13.456;2023-04-26T12:33:30;101169.22;;;12.78;37.39
25759;BME280;13604;52.496;13.456;2023-04-26T12:35:56;101174.28;;;11.59;39.72
25759;BME280;13604;52.496;13.456;2023-04-26T12:38:24;101182.13;;;10.89;40.96
25759;BME280;13604;52.496;13.456;2023-04-26T12:40:49;101169.75;;;10.34;42.58
25759;BME280;13604;52.496;13.456;2023-04-26T12:43:15;101191.50;;;10.03;43.64
25759;BME280;13604;52.496;13.456;2023-04-26T12:45:40;101163.34;;;9.79;44.57
25759;BME280;13604;52.496;13.456;2023-04-26T12:48:06;101137.13;;;9.60;44.92
25759;BME280;13604;52.496;13.456;2023-04-26T12:50:31;101178.53;;;9.88;45.90
25759;BME280;13604;52.496;13.456;2023-04-26T12:52:56;101189.06;;;10.22;45.25
25759;BME280;13604;52.496;13.456;2023-04-26T12:55:22;101191.88;;;11.63;42.29
25759;BME280;13604;52.496;13.456;2023-04-26T12:57:47;101183.78;;;13.33;38.70
25759;BME280;13604;52.496;13.456;2023-04-26T13:00:14;101184.91;;;14.30;36.70